createdAt,value
2024-01-31T00:00:49.980Z,22.30
2024-01-31T00:03:31.650Z,19.10
2024-01-31T00:06:05.668Z,19.90
2024-01-31T00:08:38.564Z,16.90
2024-01-31T00:11:09.638Z,16.10
2024-01-31T00:14:00.218Z,18.80
2024-01-31T00:16:45.724Z,16.40
2024-01-31T00:19:30.334Z,16.50
2024-01-31T00:22:11.219Z,15.20
2024-01-31T00:24:44.204Z,20.60
2024-01-31T00:27:28.543Z,18.60
2024-01-31T00:30:19.670Z,17.60
2024-01-31T00:32:50.223Z,19.00
2024-01-31T00:35:23.021Z,18.60
2024-01-31T00:37:56.175Z,21.60
2024-01-31T00:40:47.073Z,22.00
2024-01-31T00:43:17.600Z,19.20
2024-01-31T00:45:48.207Z,19.00
2024-01-31T00:48:18.826Z,21.10
2024-01-31T00:50:49.394Z,18.20
2024-01-31T00:53:19.835Z,18.60
2024-01-31T00:55:53.344Z,19.30
2024-01-31T00:58:23.903Z,20.40
2024-01-31T01:00:54.470Z,20.80
2024-01-31T01:03:24.923Z,21.60
2024-01-31T01:05:57.903Z,20.30
2024-01-31T01:08:28.614Z,20.10
2024-01-31T01:10:59.132Z,18.00
2024-01-31T01:13:29.555Z,19.70
2024-01-31T01:16:11.219Z,19.50
2024-01-31T01:18:54.355Z,17.50
2024-01-31T01:21:36.772Z,19.00
2024-01-31T01:24:08.123Z,19.60
2024-01-31T01:26:42.877Z,16.30
2024-01-31T01:29:15.686Z,19.50
2024-01-31T01:31:49.516Z,20.10
2024-01-31T01:34:20.191Z,17.70
2024-01-31T01:36:51.121Z,17.80
2024-01-31T01:39:21.711Z,21.40
2024-01-31T01:41:52.570Z,18.80
2024-01-31T01:44:23.233Z,16.90
2024-01-31T01:46:54.139Z,19.40
2024-01-31T01:49:25.249Z,18.60
2024-01-31T01:51:57.473Z,21.50
2024-01-31T01:54:28.164Z,18.40
2024-01-31T01:57:02.143Z,21.10
2024-01-31T01:59:32.905Z,20.90
2024-01-31T02:02:04.035Z,21.80
2024-01-31T02:04:36.875Z,25.10
2024-01-31T02:07:07.729Z,24.30
2024-01-31T02:09:40.468Z,23.30
2024-01-31T02:12:14.555Z,21.20
2024-01-31T02:17:23.044Z,23.40
2024-01-31T02:19:53.719Z,22.90
2024-01-31T02:22:24.395Z,24.00
2024-01-31T02:24:55.036Z,23.10
2024-01-31T02:27:35.565Z,25.60
2024-01-31T02:30:07.762Z,25.50
2024-01-31T02:32:38.754Z,26.10
2024-01-31T02:35:10.477Z,23.30
2024-01-31T02:37:45.676Z,27.30
2024-01-31T02:40:18.980Z,25.60
2024-01-31T02:43:01.093Z,30.30
2024-01-31T02:48:00.980Z,27.20
2024-01-31T02:50:40.448Z,25.10
2024-01-31T02:53:11.611Z,25.90
2024-01-31T02:55:44.579Z,24.00
2024-01-31T02:58:15.320Z,26.00
2024-01-31T03:00:45.876Z,33.10
2024-01-31T03:03:19.607Z,28.10
2024-01-31T03:05:50.496Z,25.80
2024-01-31T03:08:30.171Z,27.50
2024-01-31T03:11:00.815Z,24.30
2024-01-31T03:13:31.407Z,29.40
2024-01-31T03:16:12.167Z,26.00
2024-01-31T03:18:55.043Z,26.30
2024-01-31T03:21:25.706Z,30.40
2024-01-31T03:23:56.266Z,29.10
2024-01-31T03:26:29.930Z,26.80
2024-01-31T03:29:20.943Z,27.80
2024-01-31T03:31:51.450Z,30.70
2024-01-31T03:34:22.132Z,29.90
2024-01-31T03:36:56.472Z,30.60
2024-01-31T03:39:30.461Z,27.80
2024-01-31T03:42:21.239Z,28.20
2024-01-31T03:44:54.717Z,28.70
2024-01-31T03:47:36.728Z,29.70
2024-01-31T03:50:18.801Z,25.30
2024-01-31T03:52:58.828Z,31.40
2024-01-31T03:55:40.697Z,29.80
2024-01-31T03:58:31.728Z,25.90
2024-01-31T04:01:22.603Z,30.10
2024-01-31T04:04:02.186Z,31.80
2024-01-31T04:06:32.824Z,30.60
2024-01-31T04:09:07.324Z,28.30
2024-01-31T04:11:41.415Z,33.30
2024-01-31T04:14:32.145Z,32.90
2024-01-31T04:17:15.410Z,33.40
2024-01-31T04:19:50.357Z,36.10
2024-01-31T04:22:24.150Z,36.20
2024-01-31T04:24:58.093Z,36.50
2024-01-31T04:30:18.174Z,33.10
2024-01-31T04:33:09.049Z,36.80
2024-01-31T04:35:42.626Z,35.90
2024-01-31T04:38:15.557Z,34.30
2024-01-31T04:41:06.590Z,33.80
2024-01-31T04:43:39.307Z,32.50
2024-01-31T04:46:30.165Z,35.80
2024-01-31T04:49:21.098Z,38.20
2024-01-31T04:52:12.586Z,37.50
2024-01-31T04:54:57.705Z,31.90
2024-01-31T05:00:29.428Z,29.50
2024-01-31T05:03:11.434Z,37.30
2024-01-31T05:06:02.178Z,35.40
2024-01-31T05:08:32.712Z,35.90
2024-01-31T05:11:08.666Z,39.60
2024-01-31T05:13:42.934Z,35.00
2024-01-31T05:16:22.505Z,35.60
2024-01-31T05:18:53.303Z,35.90
2024-01-31T05:21:26.493Z,37.70
2024-01-31T05:23:57.071Z,35.30
2024-01-31T05:26:27.516Z,40.20
2024-01-31T05:29:00.998Z,31.60
2024-01-31T05:31:34.389Z,39.10
2024-01-31T05:34:28.189Z,39.60
2024-01-31T05:36:56.926Z,38.90
2024-01-31T05:39:36.402Z,36.40
2024-01-31T05:42:09.546Z,35.50
2024-01-31T05:44:40.074Z,37.90
2024-01-31T05:47:22.404Z,38.40
2024-01-31T05:49:52.979Z,41.10
2024-01-31T05:52:23.480Z,40.20
2024-01-31T05:54:56.602Z,37.40
2024-01-31T05:57:27.097Z,37.90
2024-01-31T06:00:14.284Z,43.40
2024-01-31T06:02:45.978Z,39.50
2024-01-31T06:05:27.243Z,35.90
2024-01-31T06:07:57.982Z,39.20
2024-01-31T06:10:39.740Z,37.80
2024-01-31T06:13:10.494Z,40.90
2024-01-31T06:15:41.247Z,37.30
2024-01-31T06:18:17.412Z,36.10
2024-01-31T06:21:01.192Z,41.90
2024-01-31T06:23:31.619Z,40.00
2024-01-31T06:26:04.337Z,43.20
2024-01-31T06:28:49.629Z,40.20
2024-01-31T06:31:28.808Z,40.00
2024-01-31T06:34:19.960Z,42.50
2024-01-31T06:36:50.722Z,40.80
2024-01-31T06:39:21.489Z,40.70
2024-01-31T06:41:52.534Z,40.50
2024-01-31T06:44:43.725Z,47.50
2024-01-31T06:47:14.209Z,45.90
2024-01-31T06:49:51.830Z,42.40
2024-01-31T06:52:22.770Z,39.50
2024-01-31T06:55:03.923Z,45.40
2024-01-31T06:57:39.044Z,42.20
2024-01-31T07:00:16.388Z,45.30
2024-01-31T07:02:46.892Z,48.80
2024-01-31T07:05:20.193Z,48.10
2024-01-31T07:08:01.040Z,49.30
2024-01-31T07:10:31.754Z,46.40
2024-01-31T07:13:09.846Z,46.20
2024-01-31T07:15:40.866Z,45.40
2024-01-31T07:18:31.756Z,44.60
2024-01-31T07:21:15.566Z,47.10
2024-01-31T07:23:47.294Z,41.20
2024-01-31T07:26:28.338Z,46.40
2024-01-31T07:29:02.570Z,41.60
2024-01-31T07:31:43.167Z,42.30
2024-01-31T07:34:37.469Z,45.60
2024-01-31T07:37:11.757Z,46.30
2024-01-31T07:40:02.653Z,51.50
2024-01-31T07:42:53.350Z,40.50
2024-01-31T07:45:34.025Z,43.30
2024-01-31T07:48:04.921Z,43.90
2024-01-31T07:50:35.830Z,49.30
2024-01-31T07:53:12.789Z,41.60
2024-01-31T07:55:54.503Z,37.90
2024-01-31T07:58:37.874Z,42.10
2024-01-31T08:01:13.482Z,43.40
2024-01-31T08:03:46.628Z,38.40
2024-01-31T08:06:17.235Z,44.50
2024-01-31T08:08:48.307Z,42.70
2024-01-31T08:11:18.793Z,41.90
2024-01-31T08:13:49.460Z,47.40
2024-01-31T08:16:20.197Z,41.90
2024-01-31T08:18:54.369Z,42.70
2024-01-31T08:21:35.896Z,39.60
2024-01-31T08:24:07.381Z,39.80
2024-01-31T08:26:55.174Z,47.50
2024-01-31T08:29:27.740Z,45.70
2024-01-31T08:32:01.818Z,36.40
2024-01-31T08:34:33.073Z,39.20
2024-01-31T08:37:15.768Z,35.00
2024-01-31T08:39:56.341Z,36.80
2024-01-31T08:42:30.168Z,36.10
2024-01-31T08:45:12.743Z,37.50
2024-01-31T08:47:53.455Z,35.60
2024-01-31T08:50:26.500Z,34.60
2024-01-31T08:52:57.226Z,35.90
2024-01-31T08:55:34.979Z,35.20
2024-01-31T08:58:08.172Z,32.90
2024-01-31T09:00:48.682Z,28.30
2024-01-31T09:03:19.795Z,28.90
2024-01-31T09:05:53.688Z,26.90
2024-01-31T09:08:24.356Z,27.60
2024-01-31T09:10:59.179Z,25.30
2024-01-31T09:13:33.239Z,21.20
2024-01-31T09:16:07.701Z,22.90
2024-01-31T09:18:49.464Z,20.80
2024-01-31T09:21:27.483Z,14.10
2024-01-31T09:23:58.382Z,14.90
2024-01-31T09:26:28.917Z,16.30
2024-01-31T09:29:08.666Z,12.80
2024-01-31T09:31:39.374Z,12.60
2024-01-31T09:34:10.720Z,10.20
2024-01-31T09:36:51.547Z,10.80
2024-01-31T09:39:22.083Z,11.90
2024-01-31T09:41:52.529Z,10.20
2024-01-31T09:44:23.563Z,10.30
2024-01-31T09:46:57.852Z,9.60
2024-01-31T09:49:28.648Z,8.00
2024-01-31T09:52:01.793Z,10.70
2024-01-31T09:54:32.631Z,9.10
2024-01-31T09:57:05.094Z,10.30
2024-01-31T09:59:39.238Z,9.20
2024-01-31T10:02:14.844Z,9.90
2024-01-31T10:04:50.245Z,9.70
2024-01-31T10:07:33.324Z,9.20
2024-01-31T10:10:03.824Z,8.10
2024-01-31T10:12:34.517Z,8.30
2024-01-31T10:15:05.248Z,10.20
2024-01-31T10:17:38.026Z,7.90
2024-01-31T10:20:15.163Z,10.60
2024-01-31T10:22:48.078Z,8.40
2024-01-31T10:25:19.996Z,8.50
2024-01-31T10:27:53.621Z,8.10
2024-01-31T10:30:24.284Z,7.60
2024-01-31T10:32:56.646Z,7.70
2024-01-31T10:35:48.220Z,9.00
2024-01-31T10:38:22.267Z,8.70
2024-01-31T10:40:53.525Z,7.20
2024-01-31T10:43:25.300Z,8.20
2024-01-31T10:45:56.080Z,7.80
2024-01-31T10:48:26.735Z,9.00
2024-01-31T10:51:01.424Z,6.90
2024-01-31T10:53:34.163Z,8.40
2024-01-31T10:56:07.524Z,7.20
2024-01-31T10:58:39.334Z,7.30
2024-01-31T11:01:13.487Z,9.00
2024-01-31T11:03:48.524Z,6.00
2024-01-31T11:06:21.509Z,9.80
2024-01-31T11:08:52.038Z,7.60
2024-01-31T11:11:24.153Z,8.80
2024-01-31T11:13:57.768Z,7.70
2024-01-31T11:16:28.723Z,7.40
2024-01-31T11:19:00.220Z,5.10
2024-01-31T11:21:35.872Z,4.30
2024-01-31T11:24:10.487Z,7.00
2024-01-31T11:26:41.966Z,5.90
2024-01-31T11:29:13.399Z,5.90
2024-01-31T11:34:15.256Z,5.10
2024-01-31T11:36:45.988Z,5.70
2024-01-31T11:39:16.408Z,6.00
2024-01-31T11:41:46.898Z,7.10
2024-01-31T11:44:17.439Z,7.60
2024-01-31T11:46:47.959Z,6.10
2024-01-31T11:49:18.801Z,6.40
2024-01-31T11:51:49.398Z,6.10
2024-01-31T11:54:20.140Z,7.70
2024-01-31T11:56:51.258Z,6.40
2024-01-31T12:01:51.112Z,6.20
2024-01-31T12:04:22.672Z,8.80
2024-01-31T12:07:03.812Z,5.20
2024-01-31T12:09:36.359Z,6.00
2024-01-31T12:12:11.457Z,6.30
2024-01-31T12:14:43.634Z,5.60
2024-01-31T12:17:24.222Z,5.90
2024-01-31T12:20:06.892Z,7.00
2024-01-31T12:22:38.363Z,6.50
2024-01-31T12:25:10.327Z,5.30
2024-01-31T12:27:43.679Z,4.90
2024-01-31T12:30:34.547Z,7.30
2024-01-31T12:33:05.544Z,6.40
2024-01-31T12:35:39.236Z,5.50
2024-01-31T12:38:11.728Z,5.50
2024-01-31T12:40:42.381Z,5.40
2024-01-31T12:43:13.781Z,6.80
2024-01-31T12:45:47.081Z,7.50
2024-01-31T12:48:20.093Z,6.50
2024-01-31T12:51:01.981Z,6.50
2024-01-31T12:53:32.741Z,8.10
2024-01-31T12:56:03.337Z,7.10
2024-01-31T12:58:33.941Z,4.80
2024-01-31T13:01:04.676Z,7.90
2024-01-31T13:03:40.349Z,4.80
2024-01-31T13:06:13.528Z,6.40
2024-01-31T13:08:45.032Z,7.70
2024-01-31T13:11:16.151Z,6.70
2024-01-31T13:13:48.561Z,4.80
2024-01-31T13:16:21.308Z,5.00
2024-01-31T13:18:52.061Z,5.70
2024-01-31T13:21:22.937Z,7.20
2024-01-31T13:23:56.996Z,8.40
2024-01-31T13:26:28.158Z,7.30
2024-01-31T13:31:31.421Z,7.50
2024-01-31T13:34:04.855Z,6.10
2024-01-31T13:36:35.448Z,9.50
2024-01-31T13:39:06.717Z,6.60
2024-01-31T13:41:39.266Z,6.90
2024-01-31T13:44:09.747Z,6.90
2024-01-31T13:46:42.180Z,6.50
2024-01-31T13:49:13.707Z,6.40
2024-01-31T13:51:45.350Z,10.60
2024-01-31T13:54:25.222Z,6.60
2024-01-31T13:57:05.262Z,10.50
2024-01-31T13:59:36.223Z,9.90
2024-01-31T14:02:07.542Z,7.30
2024-01-31T14:07:07.356Z,7.60
2024-01-31T14:09:37.883Z,7.70
2024-01-31T14:12:11.256Z,8.90
2024-01-31T14:14:42.674Z,10.30
2024-01-31T14:17:13.046Z,8.50
2024-01-31T14:19:43.432Z,9.50
2024-01-31T14:22:20.734Z,8.80
2024-01-31T14:24:56.962Z,7.70
2024-01-31T14:27:27.987Z,9.30
2024-01-31T14:29:58.611Z,7.10
2024-01-31T14:32:29.517Z,7.40
2024-01-31T14:35:00.210Z,8.00
2024-01-31T14:37:31.136Z,8.00
2024-01-31T14:40:01.816Z,10.80
2024-01-31T14:42:32.720Z,8.50
2024-01-31T14:45:03.338Z,8.10
2024-01-31T14:47:33.889Z,6.80
2024-01-31T14:50:04.463Z,9.50
2024-01-31T14:52:40.182Z,10.20
2024-01-31T14:55:11.726Z,9.00
2024-01-31T14:57:44.758Z,9.30
2024-01-31T15:00:16.699Z,10.10
2024-01-31T15:02:48.791Z,7.10
2024-01-31T15:05:22.711Z,9.50
2024-01-31T15:07:55.896Z,9.30
2024-01-31T15:10:26.548Z,7.70
2024-01-31T15:12:57.099Z,8.60
2024-01-31T15:15:27.552Z,12.70
2024-01-31T15:17:58.111Z,9.30
2024-01-31T15:20:32.771Z,12.00
2024-01-31T15:23:04.094Z,10.70
2024-01-31T15:28:03.812Z,11.60
2024-01-31T15:30:55.609Z,11.70
2024-01-31T15:33:26.405Z,9.80
2024-01-31T15:35:57.399Z,11.70
2024-01-31T15:38:28.491Z,10.80
2024-01-31T15:41:04.136Z,11.70
2024-01-31T15:43:34.732Z,9.90
2024-01-31T15:46:05.412Z,10.60
2024-01-31T15:48:36.060Z,10.00
2024-01-31T15:51:07.088Z,12.80
2024-01-31T15:53:37.720Z,8.80
2024-01-31T15:56:08.586Z,9.20
2024-01-31T15:58:59.157Z,12.50
2024-01-31T16:01:33.972Z,9.40
2024-01-31T16:04:04.691Z,10.60
2024-01-31T16:06:35.270Z,11.50
2024-01-31T16:09:06.564Z,11.40
2024-01-31T16:11:37.125Z,10.20
2024-01-31T16:14:07.737Z,12.00
2024-01-31T16:16:38.224Z,13.00
2024-01-31T16:19:11.912Z,12.30
2024-01-31T16:24:17.610Z,11.10
2024-01-31T16:26:48.097Z,14.90
2024-01-31T16:29:21.534Z,16.60
2024-01-31T16:31:54.378Z,14.90
2024-01-31T16:34:24.902Z,15.20
2024-01-31T16:36:55.916Z,13.60
2024-01-31T16:39:35.578Z,13.70
2024-01-31T16:42:06.822Z,15.60
2024-01-31T16:47:06.903Z,14.30
2024-01-31T16:49:37.639Z,14.40
2024-01-31T16:52:09.044Z,14.50
2024-01-31T16:54:39.464Z,12.90
2024-01-31T16:57:30.111Z,12.90
2024-01-31T17:00:00.774Z,13.10
2024-01-31T17:02:33.774Z,15.20
2024-01-31T17:05:08.371Z,18.20
2024-01-31T17:07:38.996Z,16.50
2024-01-31T17:10:10.792Z,15.30
2024-01-31T17:12:43.857Z,16.30
2024-01-31T17:15:18.415Z,16.20
2024-01-31T17:17:49.004Z,14.90
2024-01-31T17:20:20.485Z,18.50
2024-01-31T17:25:19.999Z,21.40
2024-01-31T17:27:50.496Z,20.20
2024-01-31T17:30:23.489Z,19.80
2024-01-31T17:32:56.321Z,22.90
2024-01-31T17:35:27.186Z,19.80
2024-01-31T17:38:00.732Z,19.00
2024-01-31T17:40:31.310Z,18.50
2024-01-31T17:43:01.906Z,18.60
2024-01-31T17:45:33.682Z,18.40
2024-01-31T17:48:24.581Z,19.00
2024-01-31T17:50:57.554Z,18.90
2024-01-31T17:53:28.109Z,25.40
2024-01-31T17:56:11.451Z,20.30
2024-01-31T17:58:42.092Z,19.00
2024-01-31T18:01:14.815Z,23.70
2024-01-31T18:03:45.810Z,24.20
2024-01-31T18:06:36.667Z,22.00
2024-01-31T18:09:17.957Z,21.50
2024-01-31T18:11:48.772Z,19.60
2024-01-31T18:14:21.631Z,20.10
2024-01-31T18:16:54.637Z,22.50
2024-01-31T18:19:27.636Z,20.30
2024-01-31T18:22:01.397Z,22.00
2024-01-31T18:24:31.973Z,21.00
2024-01-31T18:27:22.340Z,19.00
2024-01-31T18:29:55.347Z,21.40
2024-01-31T18:32:35.952Z,21.40
2024-01-31T18:35:10.013Z,19.60
2024-01-31T18:37:40.799Z,19.30
2024-01-31T18:40:12.641Z,21.50
2024-01-31T18:42:45.758Z,21.40
2024-01-31T18:45:18.002Z,23.20
2024-01-31T18:48:00.223Z,20.90
2024-01-31T18:53:02.566Z,18.70
2024-01-31T18:55:53.544Z,23.10
2024-01-31T18:58:27.604Z,19.00
2024-01-31T19:01:03.945Z,17.90
2024-01-31T19:03:35.562Z,19.10
2024-01-31T19:06:09.105Z,21.20
2024-01-31T19:08:39.750Z,23.90
2024-01-31T19:11:10.368Z,22.40
2024-01-31T19:13:42.773Z,22.10
2024-01-31T19:16:16.003Z,22.70
2024-01-31T19:18:48.570Z,22.40
2024-01-31T19:21:19.216Z,23.90
2024-01-31T19:23:49.766Z,22.50
2024-01-31T19:26:24.017Z,26.50
2024-01-31T19:28:54.502Z,21.50
2024-01-31T19:31:27.978Z,21.30
2024-01-31T19:33:58.649Z,25.40
2024-01-31T19:36:30.444Z,22.50
2024-01-31T19:39:01.440Z,24.40
2024-01-31T19:41:33.062Z,18.80
2024-01-31T19:44:14.705Z,25.40
2024-01-31T19:46:48.279Z,25.50
2024-01-31T19:49:22.079Z,22.00
2024-01-31T19:54:25.128Z,25.70
2024-01-31T19:56:56.036Z,22.90
2024-01-31T19:59:27.161Z,20.80
2024-01-31T20:01:57.816Z,19.70
2024-01-31T20:04:28.336Z,18.30
2024-01-31T20:06:59.175Z,18.90
2024-01-31T20:09:30.881Z,21.40
2024-01-31T20:12:01.593Z,16.70
2024-01-31T20:14:37.135Z,16.80
2024-01-31T20:17:07.910Z,14.80
2024-01-31T20:19:38.552Z,13.20
2024-01-31T20:22:09.298Z,17.10
2024-01-31T20:24:39.898Z,15.30
2024-01-31T20:27:10.420Z,13.70
2024-01-31T20:29:41.434Z,14.00
2024-01-31T20:32:12.345Z,15.40
2024-01-31T20:34:42.969Z,16.50
2024-01-31T20:37:13.553Z,12.00
2024-01-31T20:39:44.419Z,12.90
2024-01-31T20:42:15.291Z,11.20
2024-01-31T20:44:46.129Z,12.10
2024-01-31T20:47:16.918Z,10.80
2024-01-31T20:49:47.520Z,12.70
2024-01-31T20:52:39.595Z,10.90
2024-01-31T20:55:13.060Z,12.50
2024-01-31T20:57:46.206Z,12.70
2024-01-31T21:00:18.731Z,12.00
2024-01-31T21:02:53.917Z,10.90
2024-01-31T21:05:27.409Z,12.70
2024-01-31T21:07:58.120Z,15.70
2024-01-31T21:10:29.152Z,12.00
2024-01-31T21:12:59.724Z,15.80
2024-01-31T21:15:30.370Z,16.30
2024-01-31T21:18:00.913Z,15.20
2024-01-31T21:20:34.651Z,15.10
2024-01-31T21:23:05.526Z,15.30
2024-01-31T21:25:38.483Z,17.30
2024-01-31T21:28:09.537Z,13.80
2024-01-31T21:30:40.162Z,15.00
2024-01-31T21:33:10.781Z,16.60
2024-01-31T21:35:41.441Z,14.70
2024-01-31T21:38:12.143Z,17.60
2024-01-31T21:40:45.666Z,21.80
2024-01-31T21:43:16.288Z,19.20
2024-01-31T21:45:49.941Z,20.10
2024-01-31T21:48:20.614Z,16.00
2024-01-31T21:50:51.144Z,20.90
2024-01-31T21:53:21.833Z,21.80
2024-01-31T21:55:52.346Z,16.00
2024-01-31T21:58:26.062Z,17.80
2024-01-31T22:00:56.670Z,17.80
2024-01-31T22:03:35.169Z,16.70
2024-01-31T22:06:14.258Z,16.00
2024-01-31T22:08:45.140Z,19.00
2024-01-31T22:11:18.540Z,17.50
2024-01-31T22:13:49.764Z,14.60
2024-01-31T22:16:23.286Z,14.70
2024-01-31T22:18:53.929Z,14.40
2024-01-31T22:21:28.174Z,17.10
2024-01-31T22:23:58.896Z,13.90
2024-01-31T22:26:29.566Z,17.70
2024-01-31T22:29:00.166Z,12.60
2024-01-31T22:31:30.925Z,15.10
2024-01-31T22:34:04.582Z,14.50
2024-01-31T22:36:47.780Z,13.70
2024-01-31T22:39:38.392Z,14.50
2024-01-31T22:42:08.993Z,14.90
2024-01-31T22:44:41.914Z,11.90
2024-01-31T22:47:12.467Z,14.20
2024-01-31T22:49:53.070Z,15.10
2024-01-31T22:52:23.636Z,11.90
2024-01-31T22:54:59.993Z,10.50
2024-01-31T22:57:32.506Z,8.00
2024-01-31T23:00:04.689Z,7.20
2024-01-31T23:02:35.804Z,6.40
2024-01-31T23:05:06.803Z,6.80
2024-01-31T23:07:37.581Z,7.00
2024-01-31T23:10:11.585Z,5.70
2024-01-31T23:12:45.638Z,8.30
2024-01-31T23:15:18.816Z,6.50
2024-01-31T23:17:52.131Z,5.60
2024-01-31T23:20:22.561Z,5.40
2024-01-31T23:22:52.991Z,6.40
2024-01-31T23:25:24.108Z,7.10
2024-01-31T23:27:54.642Z,7.00
2024-01-31T23:30:36.374Z,6.20
2024-01-31T23:33:07.365Z,7.00
2024-01-31T23:35:38.419Z,5.10
2024-01-31T23:38:09.531Z,5.80
2024-01-31T23:40:40.042Z,7.60
2024-01-31T23:43:10.545Z,5.90
2024-01-31T23:45:49.870Z,6.70
2024-01-31T23:48:23.945Z,6.80
2024-01-31T23:51:04.903Z,6.30
2024-01-31T23:53:35.396Z,7.00
2024-01-31T23:56:06.450Z,7.70
2024-01-31T23:58:37.218Z,7.30
